Time;durP1;ratioP1;P1;durP2;ratioP2;P2;SDS_P1;SDS_P2;PMS_P1;PMS_P2;Temp;Humidity;BMP_temperature;BMP_pressure;BME280_temperature;BME280_humidity;BME280_pressure;Samples;Min_cycle;Max_cycle;Signal;HPM_P1;HPM_P2
2022/09/13 00:01:18;;;;;;;1.75;1.50;;;23.80;56.70;;;;;;4927441;28;91983;-85
2022/09/13 00:03:43;;;;;;;1.95;1.65;;;23.70;56.70;;;;;;4927907;28;93477;-85
2022/09/13 00:06:12;;;;;;;1.98;1.75;;;23.80;56.60;;;;;;4927141;28;92911;-84
2022/09/13 00:08:38;;;;;;;2.55;1.80;;;23.70;56.60;;;;;;4926197;28;93044;-85
2022/09/13 00:11:05;;;;;;;1.92;1.70;;;23.80;56.70;;;;;;4928158;28;92602;-85
2022/09/13 00:13:30;;;;;;;1.92;1.65;;;23.80;56.70;;;;;;4924721;28;93141;-85
2022/09/13 00:15:57;;;;;;;3.13;1.70;;;23.70;57.30;;;;;;4958121;28;96333;-85
2022/09/13 00:18:23;;;;;;;2.13;1.90;;;23.80;56.70;;;;;;4957054;28;92549;-85
2022/09/13 00:20:48;;;;;;;1.50;1.40;;;23.70;56.70;;;;;;4924464;28;92331;-85
2022/09/13 00:23:14;;;;;;;1.75;1.65;;;23.70;56.70;;;;;;4923882;28;99395;-84
2022/09/13 00:25:40;;;;;;;1.65;1.55;;;23.70;56.80;;;;;;4924574;28;94950;-85
2022/09/13 00:28:06;;;;;;;2.25;1.60;;;23.80;56.80;;;;;;4927640;28;92274;-85
2022/09/13 00:30:32;;;;;;;1.92;1.83;;;23.80;57.00;;;;;;4925566;28;92038;-85
2022/09/13 00:32:57;;;;;;;2.20;2.00;;;23.70;56.90;;;;;;4927090;28;93456;-85
2022/09/13 00:35:23;;;;;;;1.90;1.67;;;23.70;56.90;;;;;;4927565;28;94788;-85
2022/09/13 00:37:49;;;;;;;1.88;1.77;;;23.70;57.00;;;;;;4926019;28;93076;-85
2022/09/13 00:40:15;;;;;;;2.30;1.90;;;23.70;57.00;;;;;;4932164;28;91944;-85
2022/09/13 00:42:41;;;;;;;2.83;1.88;;;23.70;57.10;;;;;;4930917;28;93257;-85
2022/09/13 00:45:09;;;;;;;1.80;1.70;;;23.70;57.10;;;;;;4932344;28;92701;-85
2022/09/13 00:48:05;;;;;;;1.90;1.80;;;23.70;57.20;;;;;;4961283;28;92148;-85
2022/09/13 00:50:36;;;;;;;2.30;1.52;;;23.70;57.00;;;;;;4961939;28;91578;-85
2022/09/13 00:53:12;;;;;;;1.77;1.65;;;23.70;57.00;;;;;;4930170;28;92535;-85
2022/09/13 00:56:08;;;;;;;1.83;1.73;;;23.70;57.50;;;;;;4928701;28;93356;-85
2022/09/13 00:58:47;;;;;;;1.60;1.50;;;23.70;57.00;;;;;;4930215;28;93530;-85
2022/09/13 01:01:14;;;;;;;2.25;1.60;;;23.70;57.10;;;;;;4946032;28;92439;-85
2022/09/13 01:03:43;;;;;;;1.92;1.77;;;23.70;57.10;;;;;;4961991;28;95126;-85
2022/09/13 01:06:19;;;;;;;1.98;1.77;;;23.70;57.20;;;;;;4928254;28;96421;-85
2022/09/13 01:08:48;;;;;;;1.70;1.60;;;23.70;57.20;;;;;;4930704;28;92059;-85
2022/09/13 01:11:26;;;;;;;1.80;1.70;;;23.70;57.20;;;;;;4930679;28;94706;-85
2022/09/13 01:13:53;;;;;;;2.85;1.65;;;23.70;57.20;;;;;;4927928;28;96687;-84
2022/09/13 01:16:19;;;;;;;2.08;1.80;;;23.70;57.20;;;;;;4944337;28;95414;-85
2022/09/13 01:18:45;;;;;;;2.13;1.73;;;23.70;57.20;;;;;;4962095;28;92389;-85
2022/09/13 01:21:37;;;;;;;1.90;1.80;;;23.60;57.10;;;;;;4930615;28;92303;-84
2022/09/13 01:24:38;;;;;;;2.85;1.80;;;23.70;57.20;;;;;;4929403;28;98959;-85
2022/09/13 01:27:22;;;;;;;1.70;1.60;;;23.60;57.20;;;;;;4928783;28;97794;-85
2022/09/13 01:30:14;;;;;;;1.73;1.63;;;23.60;57.00;;;;;;4929290;28;92782;-85
2022/09/13 01:33:04;;;;;;;2.17;1.80;;;23.60;57.00;;;;;;4929648;28;92586;-84
2022/09/13 01:35:51;;;;;;;1.98;1.67;;;23.60;57.30;;;;;;4929908;28;93272;-85
2022/09/13 01:38:19;;;;;;;1.70;1.60;;;23.70;57.00;;;;;;4930751;28;93309;-85
2022/09/13 01:40:53;;;;;;;1.88;1.73;;;23.70;57.00;;;;;;4930425;28;91956;-84
2022/09/13 01:43:38;;;;;;;2.00;1.80;;;23.70;57.00;;;;;;4930266;28;92453;-86
2022/09/13 01:46:10;;;;;;;1.63;1.52;;;23.60;57.10;;;;;;4928845;28;92436;-85
2022/09/13 01:48:58;;;;;;;1.65;1.55;;;23.60;57.10;;;;;;4929590;28;93325;-85
2022/09/13 01:51:56;;;;;;;1.67;1.58;;;23.60;57.10;;;;;;4927712;28;93241;-85
2022/09/13 01:54:34;;;;;;;1.70;1.60;;;23.60;57.10;;;;;;4928758;28;92372;-85
2022/09/13 01:57:15;;;;;;;2.42;2.05;;;23.60;57.20;;;;;;4930142;28;97210;-85
2022/09/13 02:00:02;;;;;;;1.90;1.80;;;23.60;57.20;;;;;;4930238;28;93441;-85
2022/09/13 02:02:31;;;;;;;1.55;1.45;;;23.60;57.30;;;;;;4928220;28;93396;-85
2022/09/13 02:05:05;;;;;;;2.00;1.80;;;23.60;57.20;;;;;;4928264;28;92506;-85
2022/09/13 02:07:37;;;;;;;1.95;1.67;;;23.60;57.20;;;;;;4927639;28;95154;-85
2022/09/13 02:10:18;;;;;;;1.75;1.65;;;23.60;57.30;;;;;;4927772;28;93136;-84
2022/09/13 02:12:47;;;;;;;1.75;1.65;;;23.60;57.30;;;;;;4928459;28;100300;-85
2022/09/13 02:15:38;;;;;;;1.60;1.50;;;23.50;57.20;;;;;;4929358;28;92085;-85
2022/09/13 02:18:25;;;;;;;1.85;1.70;;;23.60;57.20;;;;;;4958859;28;101911;-85
2022/09/13 02:20:53;;;;;;;2.53;1.70;;;23.60;57.20;;;;;;4929022;28;92494;-85
2022/09/13 02:23:25;;;;;;;1.80;1.70;;;23.60;57.10;;;;;;4929359;28;92617;-85
2022/09/13 02:25:54;;;;;;;1.50;1.40;;;23.60;57.20;;;;;;4928093;28;92014;-85
2022/09/13 02:28:28;;;;;;;1.83;1.70;;;23.60;57.30;;;;;;4928309;28;93752;-85
2022/09/13 02:30:57;;;;;;;2.08;1.88;;;23.60;57.10;;;;;;4929394;28;93017;-85
2022/09/13 02:33:34;;;;;;;1.60;1.50;;;23.60;57.20;;;;;;4930174;28;92558;-85
2022/09/13 02:36:04;;;;;;;2.33;1.60;;;23.60;57.20;;;;;;4943405;28;93801;-85
2022/09/13 02:38:36;;;;;;;1.63;1.52;;;23.50;57.10;;;;;;4928043;28;92498;-84
2022/09/13 02:41:13;;;;;;;1.40;1.30;;;23.50;57.30;;;;;;4927445;28;93439;-85
2022/09/13 02:43:45;;;;;;;1.92;1.60;;;23.50;57.20;;;;;;4929220;28;93300;-84
2022/09/13 02:46:34;;;;;;;1.92;1.70;;;23.50;57.30;;;;;;4928948;28;92344;-85
2022/09/13 02:49:12;;;;;;;2.15;1.60;;;23.50;57.30;;;;;;4927307;28;93720;-85
2022/09/13 02:51:37;;;;;;;2.03;1.83;;;23.50;57.20;;;;;;4927295;28;92445;-85
2022/09/13 02:54:31;;;;;;;1.55;1.45;;;23.50;57.30;;;;;;4929480;28;92680;-85
2022/09/13 02:57:16;;;;;;;1.65;1.55;;;23.50;57.20;;;;;;4928465;28;92225;-84
2022/09/13 02:59:41;;;;;;;1.83;1.60;;;23.50;57.30;;;;;;4960007;28;95906;-85
2022/09/13 03:02:14;;;;;;;2.28;1.63;;;23.50;57.40;;;;;;4925689;28;94939;-85
2022/09/13 03:04:40;;;;;;;1.60;1.50;;;23.50;57.30;;;;;;4929502;28;92107;-85
2022/09/13 03:07:10;;;;;;;1.58;1.48;;;23.50;57.30;;;;;;4928615;28;92341;-85
2022/09/13 03:09:36;;;;;;;1.92;1.70;;;23.50;57.40;;;;;;4927253;28;94273;-85
2022/09/13 03:12:16;;;;;;;2.67;1.60;;;23.50;57.40;;;;;;4930296;28;93585;-85
2022/09/13 03:15:09;;;;;;;1.90;1.80;;;23.50;57.30;;;;;;4928453;28;92006;-85
2022/09/13 03:18:00;;;;;;;2.15;1.73;;;23.40;57.30;;;;;;4927957;28;92564;-85
2022/09/13 03:20:48;;;;;;;1.50;1.40;;;23.40;57.30;;;;;;4927096;28;92395;-85
2022/09/13 03:23:29;;;;;;;1.85;1.70;;;23.50;57.40;;;;;;4959225;28;96286;-85
2022/09/13 03:26:01;;;;;;;2.40;1.70;;;23.50;57.60;;;;;;4926716;28;92028;-85
2022/09/13 03:29:05;;;;;;;1.70;1.60;;;23.40;57.50;;;;;;4927943;28;91905;-84
2022/09/13 03:31:41;;;;;;;1.90;1.70;;;23.50;57.60;;;;;;4935432;28;94376;-85
2022/09/13 03:34:29;;;;;;;2.53;1.60;;;23.50;57.40;;;;;;4911566;28;96523;-84
2022/09/13 03:37:05;;;;;;;1.63;1.52;;;23.40;57.50;;;;;;4950604;28;93862;-85
2022/09/13 03:40:11;;;;;;;1.88;1.50;;;23.50;57.40;;;;;;4944939;28;92408;-84
2022/09/13 03:42:47;;;;;;;1.60;1.50;;;23.50;57.30;;;;;;4859022;28;101054;-84
2022/09/13 03:45:15;;;;;;;1.70;1.60;;;23.50;57.40;;;;;;4868396;28;96060;-85
2022/09/13 03:47:44;;;;;;;1.70;1.60;;;23.50;57.30;;;;;;4867104;28;92103;-85
2022/09/13 03:50:16;;;;;;;1.60;1.50;;;23.50;57.30;;;;;;4868629;28;92053;-85
2022/09/13 03:52:44;;;;;;;1.70;1.60;;;23.50;57.40;;;;;;4867388;28;93052;-85
2022/09/13 03:55:10;;;;;;;1.80;1.70;;;23.40;57.30;;;;;;4866696;28;92375;-85
2022/09/13 03:57:36;;;;;;;1.50;1.40;;;23.50;57.40;;;;;;4866668;28;92162;-85
2022/09/13 04:00:02;;;;;;;1.60;1.50;;;23.50;57.50;;;;;;4866806;28;93592;-85
2022/09/13 04:02:28;;;;;;;1.88;1.50;;;23.40;57.30;;;;;;4867148;28;94604;-85
2022/09/13 04:04:53;;;;;;;1.70;1.60;;;23.40;57.30;;;;;;4865913;28;94413;-85
2022/09/13 04:07:21;;;;;;;1.70;1.60;;;23.40;57.30;;;;;;4889178;28;92026;-85
2022/09/13 04:09:47;;;;;;;1.33;1.23;;;23.40;57.30;;;;;;4895307;28;92542;-85
2022/09/13 04:12:14;;;;;;;1.63;1.52;;;23.50;57.50;;;;;;4880543;28;95675;-85
2022/09/13 04:14:42;;;;;;;1.60;1.50;;;23.40;57.30;;;;;;4895614;28;92295;-85
2022/09/13 04:17:07;;;;;;;1.50;1.40;;;23.40;57.40;;;;;;4896082;28;92994;-85
2022/09/13 04:19:33;;;;;;;1.92;1.40;;;23.40;57.40;;;;;;4916547;28;91211;-85
2022/09/13 04:21:59;;;;;;;1.73;1.60;;;23.40;57.30;;;;;;4927337;28;93575;-85
2022/09/13 04:24:27;;;;;;;1.77;1.67;;;23.40;57.40;;;;;;4928500;28;93206;-85
2022/09/13 04:26:53;;;;;;;1.65;1.55;;;23.40;57.30;;;;;;4956616;28;93309;-85
2022/09/13 04:29:20;;;;;;;1.50;1.40;;;23.40;57.30;;;;;;4925532;28;92288;-85
2022/09/13 04:31:47;;;;;;;1.60;1.38;;;23.40;57.30;;;;;;4926281;28;94071;-84
2022/09/13 04:34:13;;;;;;;2.08;1.88;;;23.40;57.40;;;;;;4924334;28;95059;-85
2022/09/13 04:36:39;;;;;;;1.60;1.50;;;23.40;57.30;;;;;;4927378;28;92612;-85
2022/09/13 04:39:05;;;;;;;1.70;1.60;;;23.40;57.30;;;;;;4928070;28;92492;-85
2022/09/13 04:41:32;;;;;;;1.70;1.60;;;23.40;57.20;;;;;;4927274;28;92817;-85
2022/09/13 04:43:58;;;;;;;1.52;1.42;;;23.40;57.30;;;;;;4926313;28;93110;-85
2022/09/13 04:46:24;;;;;;;2.08;1.85;;;23.40;57.50;;;;;;4926852;28;92315;-85
2022/09/13 04:48:50;;;;;;;1.50;1.40;;;23.40;57.50;;;;;;4926512;28;92424;-84
2022/09/13 04:51:16;;;;;;;1.40;1.30;;;23.40;57.50;;;;;;4925958;28;94455;-85
2022/09/13 04:53:43;;;;;;;1.48;1.38;;;23.40;57.40;;;;;;4925578;28;92993;-85
2022/09/13 04:56:09;;;;;;;1.40;1.30;;;23.40;57.50;;;;;;4926739;28;100111;-84
2022/09/13 04:58:35;;;;;;;1.42;1.33;;;23.30;57.30;;;;;;4926577;28;92707;-85
2022/09/13 05:01:06;;;;;;;1.52;1.42;;;23.40;57.40;;;;;;4957256;28;96956;-85
2022/09/13 05:03:33;;;;;;;1.80;1.70;;;23.40;57.50;;;;;;4927335;28;96057;-85
2022/09/13 05:06:08;;;;;;;1.55;1.45;;;23.40;57.40;;;;;;4926351;28;92586;-85
2022/09/13 05:08:34;;;;;;;1.70;1.60;;;23.40;57.50;;;;;;4926594;28;91590;-85
2022/09/13 05:11:00;;;;;;;1.58;1.38;;;23.40;57.50;;;;;;4926441;28;93606;-85
2022/09/13 05:13:26;;;;;;;1.48;1.38;;;23.30;57.40;;;;;;4956632;28;94795;-85
2022/09/13 05:16:04;;;;;;;1.50;1.40;;;23.40;57.50;;;;;;4925618;28;93175;-85
2022/09/13 05:18:32;;;;;;;1.60;1.40;;;23.40;57.60;;;;;;4927875;28;92048;-85
2022/09/13 05:20:59;;;;;;;1.40;1.30;;;23.40;57.60;;;;;;4956897;28;93807;-85
2022/09/13 05:23:26;;;;;;;1.40;1.30;;;23.40;57.60;;;;;;4925697;28;93259;-85
2022/09/13 05:25:53;;;;;;;1.48;1.38;;;23.40;57.50;;;;;;4928269;28;92498;-84
2022/09/13 05:28:20;;;;;;;2.53;1.55;;;23.40;57.50;;;;;;4928395;28;92343;-85
2022/09/13 05:31:00;;;;;;;1.88;1.77;;;23.30;57.50;;;;;;4928971;28;93514;-84
2022/09/13 05:33:32;;;;;;;1.33;1.23;;;23.40;57.50;;;;;;4932721;28;92802;-84
2022/09/13 05:35:58;;;;;;;1.48;1.38;;;23.30;57.40;;;;;;4960123;28;91961;-84
2022/09/13 05:38:23;;;;;;;1.40;1.30;;;23.30;57.50;;;;;;4930816;28;92372;-84
2022/09/13 05:40:55;;;;;;;1.50;1.40;;;23.30;57.40;;;;;;4930238;28;94042;-84
2022/09/13 05:43:22;;;;;;;1.50;1.40;;;23.30;57.40;;;;;;4928998;28;96299;-84
2022/09/13 05:45:47;;;;;;;2.85;1.65;;;23.40;57.30;;;;;;4929666;28;91896;-85
2022/09/13 05:48:13;;;;;;;2.55;1.45;;;23.40;57.50;;;;;;4930162;28;92394;-84
2022/09/13 05:50:39;;;;;;;2.85;1.35;;;23.40;57.30;;;;;;4928616;28;93837;-83
2022/09/13 05:53:08;;;;;;;2.88;1.48;;;23.50;57.30;;;;;;4928714;28;93141;-84
2022/09/13 05:55:34;;;;;;;3.30;1.85;;;23.50;57.60;;;;;;4929185;28;92468;-85
2022/09/13 05:58:02;;;;;;;6.43;1.70;;;23.50;57.60;;;;;;4962173;28;91647;-84
2022/09/13 06:00:30;;;;;;;6.32;2.03;;;23.50;57.90;;;;;;4929520;28;93207;-83
2022/09/13 06:02:56;;;;;;;8.10;1.75;;;23.50;58.40;;;;;;4931270;28;93099;-83
2022/09/13 06:05:22;;;;;;;7.65;1.80;;;23.50;59.20;;;;;;4928142;28;94023;-82
2022/09/13 06:07:48;;;;;;;6.32;2.03;;;23.50;58.60;;;;;;4960676;28;92815;-81
2022/09/13 06:10:13;;;;;;;8.20;1.95;;;23.60;58.60;;;;;;4926792;28;93546;-82
2022/09/13 06:12:39;;;;;;;9.27;2.28;;;23.70;59.10;;;;;;4928401;28;93145;-82
2022/09/13 06:15:05;;;;;;;5.15;2.00;;;23.70;58.30;;;;;;4929355;28;92028;-81
2022/09/13 06:17:30;;;;;;;9.55;2.58;;;23.60;58.60;;;;;;4926780;28;92082;-81
2022/09/13 06:19:56;;;;;;;13.43;2.92;;;23.50;58.40;;;;;;4926924;28;92373;-82
2022/09/13 06:22:22;;;;;;;8.43;2.17;;;23.50;58.70;;;;;;4927119;28;93455;-82
2022/09/13 06:24:48;;;;;;;4.18;1.80;;;23.60;58.60;;;;;;4927240;28;92505;-82
2022/09/13 06:27:13;;;;;;;3.38;2.00;;;23.50;58.70;;;;;;4928051;28;92210;-82
2022/09/13 06:29:39;;;;;;;8.90;2.28;;;23.40;58.70;;;;;;4925004;28;92931;-82
2022/09/13 06:32:05;;;;;;;5.95;2.00;;;23.40;58.80;;;;;;4926205;28;93934;-82
2022/09/13 06:34:30;;;;;;;4.70;1.98;;;23.40;59.00;;;;;;4927036;28;92716;-81
2022/09/13 06:36:56;;;;;;;3.72;2.10;;;23.40;59.00;;;;;;4923387;28;92127;-82
2022/09/13 06:39:21;;;;;;;5.70;2.35;;;23.40;59.10;;;;;;4924596;28;93454;-82
2022/09/13 06:41:47;;;;;;;8.80;2.25;;;23.40;59.00;;;;;;4925011;28;93092;-82
2022/09/13 06:44:13;;;;;;;3.67;2.15;;;23.40;59.10;;;;;;4927144;28;92579;-82
2022/09/13 06:46:38;;;;;;;6.13;2.47;;;23.40;59.00;;;;;;4925380;28;91780;-82
2022/09/13 06:49:06;;;;;;;7.53;2.33;;;23.40;59.00;;;;;;4927048;28;92377;-82
2022/09/13 06:51:33;;;;;;;4.47;1.90;;;23.40;58.90;;;;;;4927566;28;93297;-81
2022/09/13 06:53:59;;;;;;;7.30;2.42;;;23.50;58.80;;;;;;4928208;28;93375;-82
2022/09/13 06:56:33;;;;;;;10.57;2.08;;;23.50;58.40;;;;;;4927823;28;92836;-83
2022/09/13 06:59:02;;;;;;;6.25;2.38;;;23.50;58.80;;;;;;4926456;28;92828;-83
2022/09/13 07:01:35;;;;;;;;;;;23.40;58.80;;;;;;4928268;28;92476;-82
2022/09/13 07:04:02;;;;;;;5.85;2.15;;;23.40;58.80;;;;;;4931327;28;92055;-83
2022/09/13 07:06:30;;;;;;;8.27;2.45;;;23.40;58.90;;;;;;4928138;28;92530;-82
2022/09/13 07:08:57;;;;;;;8.73;2.40;;;23.40;59.00;;;;;;4926606;28;94008;-81
2022/09/13 07:11:25;;;;;;;8.90;2.60;;;23.40;59.00;;;;;;4927545;28;91683;-83
2022/09/13 07:13:55;;;;;;;3.40;2.00;;;23.40;59.40;;;;;;4927069;28;92654;-82
2022/09/13 07:16:24;;;;;;;4.32;2.25;;;23.30;59.40;;;;;;4927418;28;92248;-83
2022/09/13 07:18:59;;;;;;;7.18;2.25;;;23.30;59.70;;;;;;4928187;28;95086;-83
2022/09/13 07:21:26;;;;;;;9.63;2.50;;;23.30;59.90;;;;;;4928289;28;94422;-82
2022/09/13 07:23:53;;;;;;;5.47;2.22;;;23.40;59.80;;;;;;4928567;28;92320;-82
2022/09/13 07:26:19;;;;;;;6.63;2.10;;;23.40;59.70;;;;;;4956388;28;92504;-81
2022/09/13 07:28:47;;;;;;;4.97;2.17;;;23.40;59.90;;;;;;4926427;28;93588;-81
2022/09/13 07:31:20;;;;;;;3.88;2.10;;;23.40;60.10;;;;;;4923935;28;92351;-81
2022/09/13 07:33:46;;;;;;;3.42;2.08;;;23.40;60.20;;;;;;4957425;28;92611;-81
2022/09/13 07:36:12;;;;;;;7.00;2.20;;;23.30;60.30;;;;;;4927950;28;91965;-81
2022/09/13 07:38:45;;;;;;;8.25;2.30;;;23.30;59.90;;;;;;4926381;28;93460;-81
2022/09/13 07:41:31;;;;;;;5.07;2.17;;;23.40;59.90;;;;;;4926631;28;93429;-81
2022/09/13 07:43:59;;;;;;;4.32;2.05;;;23.40;59.80;;;;;;4925774;28;93533;-81
2022/09/13 07:46:27;;;;;;;7.65;2.13;;;23.40;60.10;;;;;;4926959;28;92486;-80
2022/09/13 07:48:55;;;;;;;4.57;1.75;;;23.40;59.90;;;;;;4925674;28;92099;-80
2022/09/13 07:51:23;;;;;;;6.82;2.20;;;23.40;59.80;;;;;;4940155;28;96353;-81
2022/09/13 07:53:51;;;;;;;6.38;2.25;;;23.40;59.50;;;;;;4925882;28;92533;-81
2022/09/13 07:56:22;;;;;;;11.85;2.58;;;23.50;59.80;;;;;;4926401;28;92649;-81
2022/09/13 07:58:50;;;;;;;7.32;2.65;;;23.50;59.90;;;;;;4953336;28;96762;-80
2022/09/13 08:01:37;;;;;;;6.30;2.00;;;23.50;59.70;;;;;;4922062;28;95317;-81
2022/09/13 08:04:06;;;;;;;3.85;2.10;;;23.50;59.80;;;;;;4957430;28;92909;-80
2022/09/13 08:06:34;;;;;;;6.32;2.13;;;23.60;59.90;;;;;;4922490;28;93611;-80
2022/09/13 08:09:00;;;;;;;3.45;1.90;;;23.60;59.90;;;;;;4919594;28;99013;-81
2022/09/13 08:11:33;;;;;;;4.57;1.90;;;23.50;60.10;;;;;;4922538;28;94258;-80
2022/09/13 08:14:00;;;;;;;6.15;1.80;;;23.60;60.20;;;;;;4920880;28;92278;-80
2022/09/13 08:16:26;;;;;;;5.25;2.17;;;23.70;60.00;;;;;;4923263;28;92807;-81
2022/09/13 08:18:57;;;;;;;6.07;2.03;;;23.60;60.00;;;;;;4922244;28;93097;-81
2022/09/13 08:21:23;;;;;;;8.43;2.40;;;23.70;60.00;;;;;;4918534;28;92350;-81
2022/09/13 08:23:54;;;;;;;6.05;1.88;;;23.60;60.00;;;;;;4927858;28;92753;-81
2022/09/13 08:26:19;;;;;;;5.22;1.98;;;23.60;60.00;;;;;;4926112;28;91817;-81
2022/09/13 08:28:45;;;;;;;7.43;2.47;;;23.60;59.70;;;;;;4926797;28;93497;-81
2022/09/13 08:31:15;;;;;;;4.85;1.98;;;23.60;59.40;;;;;;4929543;28;93109;-81
2022/09/13 08:33:42;;;;;;;5.05;2.20;;;23.50;59.40;;;;;;4925609;28;93563;-81
2022/09/13 08:36:08;;;;;;;4.25;2.40;;;23.60;59.40;;;;;;4928144;28;92752;-81
2022/09/13 08:38:33;;;;;;;3.95;1.83;;;23.60;59.50;;;;;;4928562;28;94236;-81
2022/09/13 08:41:04;;;;;;;7.22;2.25;;;23.50;59.70;;;;;;4927451;28;92403;-82
2022/09/13 08:43:46;;;;;;;3.58;2.05;;;23.60;59.90;;;;;;4941738;28;92883;-82
2022/09/13 08:46:28;;;;;;;6.05;2.58;;;23.60;59.70;;;;;;4925421;28;92608;-81
2022/09/13 08:49:10;;;;;;;4.80;2.35;;;23.60;59.50;;;;;;4923126;28;93312;-81
2022/09/13 08:51:51;;;;;;;3.25;1.80;;;23.70;60.40;;;;;;4924315;28;93726;-81
2022/09/13 08:54:19;;;;;;;5.15;2.17;;;23.70;59.50;;;;;;4924882;28;92503;-82
2022/09/13 08:56:51;;;;;;;9.55;2.35;;;23.70;59.50;;;;;;4925684;28;93862;-82
2022/09/13 08:59:38;;;;;;;5.15;2.20;;;23.70;59.30;;;;;;4925481;28;95584;-81
2022/09/13 09:02:09;;;;;;;5.05;2.08;;;23.70;59.20;;;;;;4958897;28;97126;-81
2022/09/13 09:05:03;;;;;;;6.65;1.98;;;23.70;59.20;;;;;;4928661;28;92388;-81
2022/09/13 09:07:59;;;;;;;4.53;1.95;;;23.70;59.20;;;;;;4927906;28;92443;-81
2022/09/13 09:10:34;;;;;;;4.75;2.20;;;23.70;59.20;;;;;;4928059;28;93854;-81
2022/09/13 09:13:30;;;;;;;4.70;2.30;;;23.70;59.30;;;;;;4929032;28;92484;-81
2022/09/13 09:16:06;;;;;;;5.57;2.17;;;23.70;59.10;;;;;;4930378;28;92432;-81
2022/09/13 09:18:38;;;;;;;5.00;2.30;;;23.80;59.10;;;;;;4930552;28;91939;-83
2022/09/13 09:21:08;;;;;;;3.33;1.98;;;23.80;59.00;;;;;;4927412;28;97632;-82
2022/09/13 09:23:38;;;;;;;4.18;2.03;;;23.80;59.00;;;;;;4928536;28;92929;-81
2022/09/13 09:26:20;;;;;;;9.10;2.97;;;23.80;59.00;;;;;;4928957;28;93296;-81
2022/09/13 09:28:59;;;;;;;4.20;1.80;;;23.80;59.00;;;;;;4928284;28;92750;-81
2022/09/13 09:31:34;;;;;;;4.13;2.33;;;23.80;58.70;;;;;;4931521;28;93782;-81
2022/09/13 09:34:02;;;;;;;6.35;2.20;;;23.80;58.70;;;;;;4928743;28;92716;-81
2022/09/13 09:37:06;;;;;;;3.75;2.00;;;23.70;58.80;;;;;;4929869;28;92238;-81
2022/09/13 09:39:37;;;;;;;6.03;2.45;;;23.80;58.80;;;;;;4925080;28;92711;-81
2022/09/13 09:42:04;;;;;;;4.22;1.90;;;23.70;58.80;;;;;;4910068;28;94968;-81
2022/09/13 09:44:32;;;;;;;4.32;1.90;;;23.70;59.10;;;;;;4927360;28;92296;-81
2022/09/13 09:47:17;;;;;;;4.47;2.10;;;23.70;58.70;;;;;;4909340;28;92063;-82
2022/09/13 09:52:57;;;;;;;5.10;2.15;;;23.80;58.50;;;;;;4925552;28;93326;-81
2022/09/13 09:55:33;;;;;;;8.55;2.10;;;23.80;58.40;;;;;;4911401;28;94338;-82
2022/09/13 09:58:03;;;;;;;4.85;2.20;;;23.80;58.40;;;;;;4927156;28;92133;-82
2022/09/13 10:00:32;;;;;;;4.13;2.05;;;23.80;58.60;;;;;;4928311;28;92584;-81
2022/09/13 10:03:10;;;;;;;3.42;2.15;;;23.70;58.40;;;;;;4909303;28;96346;-81
2022/09/13 10:05:36;;;;;;;2.72;1.95;;;23.80;58.60;;;;;;4924246;28;93875;-81
2022/09/13 10:08:05;;;;;;;6.70;2.20;;;23.80;58.40;;;;;;4923371;28;93388;-82
2022/09/13 10:10:41;;;;;;;17.13;4.63;;;23.90;58.50;;;;;;4924926;28;91759;-84
2022/09/13 10:13:16;;;;;;;19.10;5.50;;;23.90;58.50;;;;;;4926515;28;93775;-82
2022/09/13 10:16:02;;;;;;;22.23;6.45;;;24.00;58.40;;;;;;4906942;28;95994;-81
2022/09/13 10:18:35;;;;;;;30.77;7.20;;;24.00;58.30;;;;;;4903680;28;93378;-82
2022/09/13 10:21:25;;;;;;;28.48;7.22;;;24.00;58.60;;;;;;4903439;28;92754;-81
2022/09/13 10:24:12;;;;;;;26.58;7.07;;;24.00;58.60;;;;;;4904182;28;92781;-82
2022/09/13 10:26:37;;;;;;;16.35;5.90;;;24.00;58.80;;;;;;4905903;28;93838;-82
2022/09/13 10:29:14;;;;;;;13.07;4.53;;;24.00;58.80;;;;;;4906668;28;92162;-83
2022/09/13 10:31:44;;;;;;;22.63;5.88;;;24.10;59.10;;;;;;4910156;28;92888;-83
2022/09/13 10:34:20;;;;;;;20.33;5.05;;;24.10;58.60;;;;;;4930520;28;93525;-84
2022/09/13 10:37:13;;;;;;;22.75;5.20;;;24.10;58.80;;;;;;4927186;28;92690;-83
2022/09/13 10:39:51;;;;;;;17.13;5.35;;;24.10;58.80;;;;;;4929054;28;92049;-83
2022/09/13 10:42:22;;;;;;;20.02;4.55;;;24.00;58.90;;;;;;4929320;28;91906;-82
2022/09/13 10:45:06;;;;;;;15.43;4.75;;;24.00;59.00;;;;;;4930450;28;93273;-82
2022/09/13 10:47:47;;;;;;;13.80;4.05;;;24.10;59.10;;;;;;4928415;28;95829;-82
2022/09/13 10:50:28;;;;;;;11.82;4.25;;;24.10;59.30;;;;;;4928560;28;92161;-82
2022/09/13 10:52:55;;;;;;;13.35;4.13;;;24.10;59.20;;;;;;4927074;28;93256;-83
2022/09/13 10:55:43;;;;;;;12.38;3.60;;;24.10;59.10;;;;;;4921162;28;92884;-83
2022/09/13 10:58:13;;;;;;;10.75;3.78;;;24.10;59.70;;;;;;4928108;28;93256;-83
2022/09/13 11:01:06;;;;;;;9.02;3.25;;;24.00;59.10;;;;;;4927897;28;92949;-83
2022/09/13 11:04:00;;;;;;;7.85;3.28;;;24.00;59.30;;;;;;4930859;28;91936;-83
2022/09/13 11:07:01;;;;;;;7.93;2.47;;;24.00;59.30;;;;;;4929506;28;98962;-83
2022/09/13 11:09:54;;;;;;;7.00;2.90;;;24.00;59.40;;;;;;4932391;28;96993;-83
2022/09/13 11:12:26;;;;;;;8.00;2.83;;;24.00;59.40;;;;;;4931063;28;93435;-83
2022/09/13 11:15:24;;;;;;;4.28;2.40;;;24.00;59.50;;;;;;4930232;28;92895;-83
2022/09/13 11:17:52;;;;;;;5.80;2.42;;;23.90;59.60;;;;;;4929534;28;93025;-83
2022/09/13 11:20:36;;;;;;;6.82;2.20;;;23.90;59.60;;;;;;4928250;28;92740;-83
2022/09/13 11:23:17;;;;;;;5.88;2.35;;;24.00;59.70;;;;;;4930335;28;92459;-83
2022/09/13 11:26:31;;;;;;;3.88;1.95;;;23.90;59.60;;;;;;4930223;28;92744;-83
2022/09/13 11:29:19;;;;;;;4.60;2.30;;;24.00;59.60;;;;;;4930147;28;94246;-83
2022/09/13 11:31:51;;;;;;;4.90;1.73;;;24.00;59.50;;;;;;4931167;28;92591;-82
2022/09/13 11:34:22;;;;;;;4.80;2.33;;;24.00;59.50;;;;;;4916439;28;92165;-83
2022/09/13 11:36:54;;;;;;;6.57;2.45;;;23.90;59.20;;;;;;4948789;28;92819;-82
2022/09/13 11:39:38;;;;;;;4.88;2.30;;;23.90;59.30;;;;;;4951104;28;93993;-84
2022/09/13 11:42:31;;;;;;;3.58;2.20;;;23.90;59.50;;;;;;4950948;28;100291;-83
2022/09/13 11:45:25;;;;;;;6.57;2.35;;;23.90;59.50;;;;;;4949819;28;92563;-83
2022/09/13 11:48:12;;;;;;;3.42;1.90;;;23.90;59.30;;;;;;4895153;28;92708;-83
2022/09/13 11:51:00;;;;;;;4.43;2.10;;;24.00;59.30;;;;;;4895764;28;92433;-82
2022/09/13 11:53:40;;;;;;;6.63;2.10;;;24.00;59.30;;;;;;4893610;28;94065;-83
2022/09/13 11:56:15;;;;;;;3.75;1.80;;;24.00;59.30;;;;;;4896710;28;92626;-83
2022/09/13 11:58:54;;;;;;;5.43;1.95;;;24.00;59.90;;;;;;4894382;28;91834;-83
2022/09/13 12:01:28;;;;;;;4.30;2.00;;;24.00;59.20;;;;;;4893049;28;93517;-83
2022/09/13 12:04:10;;;;;;;2.63;1.73;;;24.00;59.20;;;;;;4896234;28;92393;-84
2022/09/13 12:06:43;;;;;;;3.17;1.67;;;24.00;59.10;;;;;;4895997;28;93431;-82
2022/09/13 12:09:20;;;;;;;6.28;1.80;;;24.00;59.00;;;;;;4896459;28;92779;-82
2022/09/13 12:11:57;;;;;;;3.25;1.77;;;24.10;58.80;;;;;;4895641;28;92678;-83
2022/09/13 12:14:26;;;;;;;8.63;2.10;;;24.10;58.60;;;;;;4888871;28;92396;-82
2022/09/13 12:16:58;;;;;;;5.30;1.85;;;24.10;58.70;;;;;;4895410;28;93177;-82
2022/09/13 12:19:45;;;;;;;3.60;2.00;;;24.10;58.70;;;;;;4879617;28;92791;-84
2022/09/13 12:22:12;;;;;;;3.83;1.70;;;24.10;58.70;;;;;;4895634;28;93802;-84
2022/09/13 12:24:56;;;;;;;2.60;1.48;;;24.10;58.50;;;;;;4908472;28;92909;-83
2022/09/13 12:27:50;;;;;;;6.18;1.92;;;24.00;58.70;;;;;;4928070;28;93094;-84
2022/09/13 12:30:19;;;;;;;3.38;1.65;;;24.00;58.60;;;;;;4928779;28;92618;-83
2022/09/13 12:32:46;;;;;;;2.67;1.45;;;24.00;58.70;;;;;;4927655;28;93726;-83
2022/09/13 12:35:18;;;;;;;5.35;1.73;;;24.00;58.40;;;;;;4932209;28;94803;-83
2022/09/13 12:38:15;;;;;;;3.72;1.65;;;24.00;58.40;;;;;;4935061;28;92524;-84
2022/09/13 12:40:59;;;;;;;2.83;1.60;;;24.00;58.50;;;;;;4933949;28;92299;-84
2022/09/13 12:43:46;;;;;;;3.50;1.42;;;24.00;58.30;;;;;;4932379;28;93720;-83
2022/09/13 12:46:21;;;;;;;3.75;1.15;;;24.00;58.10;;;;;;4965774;28;96178;-83
2022/09/13 12:49:02;;;;;;;3.85;1.48;;;24.00;57.80;;;;;;4966352;28;92697;-83
2022/09/13 12:51:55;;;;;;;2.28;1.50;;;24.00;57.90;;;;;;4936687;28;92243;-83
2022/09/13 12:54:35;;;;;;;5.07;1.67;;;24.00;58.00;;;;;;4934272;28;100881;-84
2022/09/13 12:57:15;;;;;;;4.28;1.60;;;24.00;58.20;;;;;;4933265;28;97959;-84
2022/09/13 12:59:46;;;;;;;4.10;1.73;;;24.00;58.90;;;;;;4934992;28;93625;-85
2022/09/13 13:02:41;;;;;;;1.60;1.48;;;24.00;59.30;;;;;;4930427;28;92802;-85
2022/09/13 13:05:30;;;;;;;3.83;1.40;;;24.00;59.10;;;;;;4932120;28;93904;-85
2022/09/13 13:08:02;;;;;;;;;;;24.00;59.00;;;;;;4934660;28;93427;-85
2022/09/13 13:10:34;;;;;;;4.53;1.70;;;24.00;59.00;;;;;;4930762;28;92751;-84
2022/09/13 13:13:17;;;;;;;5.88;1.90;;;24.00;58.90;;;;;;4942171;28;92482;-84
2022/09/13 13:15:42;;;;;;;6.10;1.63;;;24.10;59.20;;;;;;4926585;28;93665;-85
2022/09/13 13:18:22;;;;;;;6.43;1.70;;;24.10;59.10;;;;;;4942636;28;94482;-85
2022/09/13 13:20:54;;;;;;;5.22;1.90;;;24.10;58.90;;;;;;4936028;28;92631;-85
2022/09/13 13:23:22;;;;;;;3.05;1.80;;;24.00;58.80;;;;;;4935550;28;93021;-84